Time;durP1;ratioP1;P1;durP2;ratioP2;P2;SDS_P1;SDS_P2;PMS_P1;PMS_P2;Temp;Humidity;BMP_temperature;BMP_pressure;BME280_temperature;BME280_humidity;BME280_pressure;Samples;Min_cycle;Max_cycle;Signal;HPM_P1;HPM_P2
2021/06/27 00:02:21;;;;;;;12.15;6.79;;;;;;;16.32;83.08;99250.25;2021550;77;20239;-76
2021/06/27 00:05:26;;;;;;;13.38;7.09;;;;;;;16.29;83.30;99250.34;2023369;80;20197;-76
2021/06/27 00:08:29;;;;;;;13.09;6.82;;;;;;;16.25;83.53;99243.47;2023330;80;20610;-76
2021/06/27 00:11:32;;;;;;;7.69;6.36;;;;;;;16.23;83.83;99239.19;2022440;80;20795;-76
2021/06/27 00:14:35;;;;;;;7.03;6.01;;;;;;;16.22;84.02;99238.34;2025996;80;20159;-76
2021/06/27 00:17:39;;;;;;;6.99;5.81;;;;;;;16.21;83.97;99241.00;2021127;78;20608;-76
2021/06/27 00:20:43;;;;;;;6.14;5.03;;;;;;;16.18;83.81;99243.72;2023186;80;20215;-77
2021/06/27 00:23:49;;;;;;;6.20;4.86;;;;;;;16.14;83.97;99242.94;2018931;80;20179;-77
2021/06/27 00:26:52;;;;;;;5.89;4.70;;;;;;;16.04;84.17;99251.13;2022038;80;20222;-77
2021/06/27 00:29:55;;;;;;;6.74;4.72;;;;;;;16.00;84.33;99251.22;2023437;80;20231;-76
2021/06/27 00:32:59;;;;;;;4.74;4.34;;;;;;;15.99;84.54;99253.88;2021453;77;22477;-76
2021/06/27 00:36:02;;;;;;;5.16;4.10;;;;;;;15.94;84.68;99254.00;2023084;80;20251;-76
2021/06/27 00:39:05;;;;;;;5.51;4.35;;;;;;;15.92;84.99;99253.19;2022952;80;20188;-76
2021/06/27 00:42:07;;;;;;;5.95;4.30;;;;;;;15.92;84.96;99254.94;2022820;80;20282;-77
2021/06/27 00:45:13;;;;;;;4.96;3.85;;;;;;;15.89;85.06;99245.41;2022370;80;20186;-75
2021/06/27 00:48:15;;;;;;;5.06;4.01;;;;;;;15.84;85.04;99251.69;2022345;78;23126;-77
2021/06/27 00:51:18;;;;;;;6.93;4.39;;;;;;;15.80;85.32;99252.66;2022366;80;20167;-76
2021/06/27 00:54:21;;;;;;;4.70;3.85;;;;;;;15.80;85.26;99240.44;2026263;80;20845;-76
2021/06/27 00:57:23;;;;;;;5.90;3.60;;;;;;;15.80;85.23;99253.53;2022871;80;20216;-76
2021/06/27 01:00:32;;;;;;;6.55;4.38;;;;;;;15.75;85.61;99258.03;2021266;77;22268;-77
2021/06/27 01:03:36;;;;;;;6.16;4.50;;;;;;;15.73;85.54;99262.44;2022510;80;20269;-76
2021/06/27 01:06:38;;;;;;;5.18;3.90;;;;;;;15.69;85.78;99261.69;2026409;80;20174;-76
2021/06/27 01:09:41;;;;;;;4.64;3.79;;;;;;;15.70;85.95;99260.78;2025269;80;20171;-76
2021/06/27 01:12:44;;;;;;;4.44;4.04;;;;;;;15.68;85.88;99262.56;2025990;80;20207;-77
2021/06/27 01:15:49;;;;;;;5.24;4.04;;;;;;;15.67;85.96;99265.25;2021774;77;20848;-77
2021/06/27 01:18:53;;;;;;;3.94;3.64;;;;;;;15.65;85.94;99267.91;2022473;80;20191;-77
2021/06/27 01:21:56;;;;;;;4.99;3.94;;;;;;;15.62;85.76;99259.28;2022665;80;20232;-76
2021/06/27 01:24:58;;;;;;;4.82;3.85;;;;;;;15.59;85.74;99251.47;2022505;80;20199;-77
2021/06/27 01:28:03;;;;;;;9.60;4.47;;;;;;;15.57;85.62;99251.50;2022272;80;20167;-76
2021/06/27 01:31:06;;;;;;;5.16;4.04;;;;;;;15.53;85.70;99247.25;2021482;77;21315;-76
2021/06/27 01:34:09;;;;;;;5.18;4.41;;;;;;;15.50;85.74;99241.25;2022296;80;20618;-76
2021/06/27 01:37:12;;;;;;;4.65;4.22;;;;;;;15.46;85.57;99229.16;2023452;80;20159;-76
2021/06/27 01:40:16;;;;;;;6.59;4.82;;;;;;;15.43;85.77;99222.22;2022339;80;20693;-76
2021/06/27 01:43:21;;;;;;;4.76;4.15;;;;;;;15.42;85.90;99200.41;2022653;80;20212;-76
2021/06/27 01:46:24;;;;;;;5.69;4.53;;;;;;;15.41;86.08;99183.00;2021635;77;20417;-76
2021/06/27 01:49:27;;;;;;;6.01;4.61;;;;;;;15.41;86.24;99176.91;2022417;80;20184;-76
2021/06/27 01:52:30;;;;;;;8.13;4.35;;;;;;;15.36;86.08;99169.22;2021972;80;20167;-76
2021/06/27 01:55:34;;;;;;;10.76;5.06;;;;;;;15.26;86.29;99180.84;2021794;80;20191;-76
2021/06/27 01:58:51;;;;;;;6.78;5.05;;;;;;;15.19;87.40;99184.50;2021947;80;20200;-76
2021/06/27 02:01:54;;;;;;;8.09;5.36;;;;;;;15.17;87.91;99177.59;2021291;77;20911;-76
2021/06/27 02:04:57;;;;;;;8.27;5.06;;;;;;;15.23;88.08;99182.66;2022407;80;20782;-76
2021/06/27 02:07:59;;;;;;;8.68;5.05;;;;;;;15.18;88.13;99190.63;2018119;80;20199;-76
2021/06/27 02:11:04;;;;;;;8.11;4.96;;;;;;;15.17;88.29;99196.75;2022077;80;20163;-76
2021/06/27 02:14:08;;;;;;;11.15;5.56;;;;;;;15.19;88.45;99183.63;2023286;80;20189;-77
2021/06/27 02:17:10;;;;;;;7.54;5.36;;;;;;;15.21;88.62;99182.69;2021470;77;20313;-75
2021/06/27 02:20:14;;;;;;;6.35;5.74;;;;;;;15.26;88.47;99182.56;2023207;80;20202;-76
2021/06/27 02:23:16;;;;;;;6.44;5.46;;;;;;;15.23;88.60;99183.50;2023416;80;20200;-76
2021/06/27 02:26:20;;;;;;;5.78;5.15;;;;;;;15.28;88.59;99181.66;2023012;80;20175;-77
2021/06/27 02:29:23;;;;;;;9.02;5.00;;;;;;;15.25;88.36;99188.69;2023309;80;20768;-76
2021/06/27 02:32:25;;;;;;;5.68;5.15;;;;;;;15.24;88.33;99197.44;2022438;77;20191;-76
2021/06/27 02:35:28;;;;;;;8.50;5.20;;;;;;;15.18;88.53;99184.53;2023464;80;20178;-77
2021/06/27 02:38:31;;;;;;;6.19;4.88;;;;;;;15.18;88.66;99163.63;2022568;80;20251;-76
2021/06/27 02:41:35;;;;;;;6.78;5.15;;;;;;;15.19;88.37;99162.72;2023037;80;20220;-76
2021/06/27 02:44:38;;;;;;;7.88;4.55;;;;;;;15.17;88.28;99157.53;2023440;80;20178;-77
2021/06/27 02:47:41;;;;;;;9.70;4.59;;;;;;;15.18;88.44;99161.00;2022644;77;21885;-77
2021/06/27 02:50:44;;;;;;;7.97;4.63;;;;;;;15.21;88.61;99159.16;2022459;80;20305;-76
2021/06/27 02:53:47;;;;;;;8.20;5.00;;;;;;;15.23;88.74;99165.19;2022967;80;20224;-76
2021/06/27 02:56:50;;;;;;;5.99;5.03;;;;;;;15.26;88.66;99149.44;2022349;80;20183;-76
2021/06/27 02:59:52;;;;;;;9.18;5.61;;;;;;;15.34;88.30;99150.09;2023231;80;20168;-76
2021/06/27 03:02:56;;;;;;;9.44;5.32;;;;;;;15.42;87.90;99152.47;2021394;77;21247;-77
2021/06/27 03:05:59;;;;;;;6.32;5.43;;;;;;;15.42;87.69;99149.84;2022821;80;20174;-76
2021/06/27 03:09:01;;;;;;;9.25;5.95;;;;;;;15.49;87.40;99140.94;2023468;80;20270;-76
2021/06/27 03:12:04;;;;;;;8.73;6.25;;;;;;;15.54;87.06;99149.53;2023473;80;20163;-76
2021/06/27 03:15:09;;;;;;;9.75;6.14;;;;;;;15.62;86.43;99149.34;2022717;80;20167;-76
2021/06/27 03:18:11;;;;;;;10.76;6.59;;;;;;;15.67;86.14;99148.31;2022189;77;20199;-76
2021/06/27 03:21:14;;;;;;;8.90;5.55;;;;;;;15.72;85.56;99135.06;2022574;80;20552;-76
2021/06/27 03:24:17;;;;;;;8.06;5.50;;;;;;;15.75;85.25;99129.75;2022722;80;20261;-76
2021/06/27 03:27:20;;;;;;;7.61;5.43;;;;;;;15.79;84.95;99133.13;2022983;80;20764;-76
2021/06/27 03:30:23;;;;;;;10.94;5.36;;;;;;;15.87;84.07;99132.00;2022169;77;22296;-76
2021/06/27 03:33:25;;;;;;;9.16;5.53;;;;;;;15.91;83.94;99135.38;2022601;80;20227;-76
2021/06/27 03:36:28;;;;;;;6.13;5.35;;;;;;;15.91;83.90;99132.78;2023133;80;20200;-77
2021/06/27 03:39:31;;;;;;;5.57;5.04;;;;;;;15.82;84.49;99143.53;2022902;80;20232;-76
2021/06/27 03:42:36;;;;;;;6.30;4.93;;;;;;;15.77;85.04;99137.56;2022885;80;21010;-76
2021/06/27 03:45:39;;;;;;;6.93;5.31;;;;;;;15.80;84.48;99127.88;2021634;77;37512;-76
2021/06/27 03:48:42;;;;;;;5.49;4.93;;;;;;;15.84;83.84;99132.09;2023072;80;20167;-76
2021/06/27 03:51:45;;;;;;;5.04;4.64;;;;;;;15.91;82.89;99135.38;2023155;80;20175;-76
2021/06/27 03:54:48;;;;;;;12.39;5.25;;;;;;;16.02;82.06;99133.31;2023115;80;20928;-76
2021/06/27 03:57:51;;;;;;;5.21;4.81;;;;;;;16.14;81.30;99139.91;2022904;80;20248;-77
2021/06/27 04:00:54;;;;;;;4.80;4.40;;;;;;;16.22;80.67;99137.94;2022639;77;23479;-76
2021/06/27 04:03:57;;;;;;;4.72;4.32;;;;;;;16.28;80.58;99132.50;2020913;80;21150;-75
2021/06/27 04:07:06;;;;;;;6.99;4.90;;;;;;;16.39;80.03;99140.03;2022038;80;20702;-76
2021/06/27 04:10:15;;;;;;;;;;;;;;;16.43;79.73;99126.75;2022183;80;20187;-76
2021/06/27 04:13:30;;;;;;;4.91;4.30;;;;;;;16.49;79.71;99129.16;2022236;79;20080;-76
2021/06/27 04:16:39;;;;;;;9.10;4.93;;;;;;;16.53;79.58;99124.72;2024684;77;25541;-76
2021/06/27 04:19:42;;;;;;;9.39;5.56;;;;;;;16.55;80.13;99126.38;2026717;79;20174;-76
2021/06/27 04:22:51;;;;;;;8.07;5.21;;;;;;;16.52;81.35;99138.72;2027112;79;20236;-77
2021/06/27 04:25:54;;;;;;;8.24;4.97;;;;;;;16.45;81.97;99130.19;2026386;79;20199;-76
2021/06/27 04:29:03;;;;;;;5.55;4.90;;;;;;;16.52;81.46;99136.97;2026620;79;20204;-76
2021/06/27 04:32:06;;;;;;;5.32;4.74;;;;;;;16.56;81.73;99137.72;2029723;77;20203;-77
2021/06/27 04:35:29;;;;;;;5.09;4.10;;;;;;;16.61;81.40;99141.88;2032131;79;20189;-76
2021/06/27 04:38:32;;;;;;;5.94;4.74;;;;;;;16.73;81.57;99143.28;2032211;79;20181;-77
2021/06/27 04:41:44;;;;;;;4.64;4.29;;;;;;;16.85;81.52;99139.38;2031733;79;20193;-77
2021/06/27 04:44:53;;;;;;;5.25;3.90;;;;;;;16.89;81.75;99134.00;2032541;79;20872;-76
2021/06/27 04:47:57;;;;;;;4.34;4.04;;;;;;;16.88;82.59;99134.91;2026259;79;20719;-76
2021/06/27 04:51:06;;;;;;;4.51;4.15;;;;;;;16.92;82.90;99133.03;2026676;79;20648;-76
2021/06/27 04:54:09;;;;;;;4.50;4.16;;;;;;;16.97;83.22;99136.34;2026865;79;20233;-76
2021/06/27 04:57:18;;;;;;;4.49;4.19;;;;;;;17.02;82.47;99137.03;2026316;79;20729;-76
2021/06/27 05:00:21;;;;;;;6.05;4.36;;;;;;;17.12;80.58;99134.97;2026972;77;24733;-76
2021/06/27 05:03:31;;;;;;;4.56;4.16;;;;;;;17.19;79.60;99128.56;2031805;79;20392;-76
2021/06/27 05:06:33;;;;;;;4.15;3.79;;;;;;;17.27;78.95;99129.19;2032260;79;20173;-76
2021/06/27 05:09:42;;;;;;;4.65;4.22;;;;;;;17.33;78.31;99122.84;2030638;79;20223;-76
2021/06/27 05:12:45;;;;;;;4.22;3.92;;;;;;;17.39;77.75;99125.22;2031345;79;20177;-79
2021/06/27 05:15:55;;;;;;;4.43;4.03;;;;;;;17.44;77.35;99120.69;2030993;77;22390;-78
2021/06/27 05:18:58;;;;;;;4.72;4.15;;;;;;;17.51;77.06;99123.03;2030919;79;20275;-74
2021/06/27 05:22:07;;;;;;;4.10;3.80;;;;;;;17.65;76.76;99117.28;2030996;79;20193;-75
2021/06/27 05:25:16;;;;;;;7.38;3.55;;;;;;;17.86;76.52;99118.25;2031470;79;20251;-74
2021/06/27 05:28:27;;;;;;;3.92;3.65;;;;;;;18.08;75.82;99123.53;2030119;79;20625;-74
2021/06/27 05:31:33;;;;;;;4.32;3.76;;;;;;;18.53;74.63;99117.34;2025695;77;34073;-73
2021/06/27 05:34:55;;;;;;;3.80;3.49;;;;;;;19.18;72.14;99111.94;2024427;79;20255;-74
2021/06/27 05:38:05;;;;;;;3.58;3.24;;;;;;;19.76;69.65;99104.09;2028433;79;20170;-74
2021/06/27 05:41:14;;;;;;;3.16;2.96;;;;;;;20.35;68.00;99108.31;2024463;79;20735;-74
2021/06/27 05:44:19;;;;;;;3.54;3.26;;;;;;;20.60;66.52;99109.75;2024721;79;20208;-75
2021/06/27 05:47:27;;;;;;;3.75;3.45;;;;;;;20.65;65.98;99123.59;2019893;77;20573;-73
2021/06/27 05:50:37;;;;;;;3.41;2.67;;;;;;;20.62;65.23;99123.72;2019110;80;20206;-74
2021/06/27 05:53:40;;;;;;;5.05;3.06;;;;;;;20.69;65.01;99126.00;2019706;80;20776;-73
2021/06/27 05:56:49;;;;;;;3.46;2.66;;;;;;;20.74;65.10;99125.75;2019479;80;21019;-75
2021/06/27 05:59:52;;;;;;;3.35;3.06;;;;;;;21.03;64.27;99113.72;2022724;80;20175;-77
2021/06/27 06:03:02;;;;;;;3.28;2.97;;;;;;;21.17;63.53;99111.22;2014173;77;43533;-75
2021/06/27 06:06:05;;;;;;;2.95;2.75;;;;;;;21.75;62.00;99118.72;2015494;80;20807;-75
2021/06/27 06:09:14;;;;;;;4.59;2.51;;;;;;;22.39;60.16;99119.59;2013221;80;20244;-75
2021/06/27 06:12:23;;;;;;;2.80;2.61;;;;;;;22.92;58.24;99125.31;2015855;80;20309;-76
2021/06/27 06:15:26;;;;;;;3.04;2.41;;;;;;;23.43;56.48;99138.16;2017024;77;29026;-75
2021/06/27 06:18:42;;;;;;;2.46;2.26;;;;;;;23.85;55.28;99131.19;2026923;80;20163;-76
2021/06/27 06:21:46;;;;;;;2.40;2.30;;;;;;;24.22;54.18;99141.16;2025390;79;21062;-76
2021/06/27 06:24:57;;;;;;;2.41;2.21;;;;;;;24.57;53.02;99141.53;2025014;79;20296;-76
2021/06/27 06:28:07;;;;;;;2.40;2.20;;;;;;;24.67;52.69;99141.81;2025370;79;20182;-76
2021/06/27 06:31:10;;;;;;;2.39;2.19;;;;;;;24.65;52.61;99141.91;2021598;77;45200;-76
2021/06/27 06:34:26;;;;;;;3.38;2.13;;;;;;;24.69;52.70;99142.56;2023663;79;20181;-76
2021/06/27 06:37:28;;;;;;;2.50;2.30;;;;;;;24.98;51.99;99154.75;2029284;79;20170;-76
2021/06/27 06:40:38;;;;;;;2.61;2.21;;;;;;;25.45;51.25;99150.66;2031151;79;20868;-77
2021/06/27 06:43:47;;;;;;;2.10;1.98;;;;;;;25.78;49.64;99146.63;2030220;79;20189;-75
2021/06/27 06:46:49;;;;;;;2.21;1.95;;;;;;;26.05;49.38;99142.03;2026050;77;51945;-76
2021/06/27 06:49:59;;;;;;;3.10;2.21;;;;;;;26.19;49.38;99147.19;2026128;80;20295;-76
2021/06/27 06:53:01;;;;;;;2.08;1.98;;;;;;;26.01;49.14;99152.97;2025598;79;20239;-77
2021/06/27 06:56:10;;;;;;;2.55;2.31;;;;;;;25.97;49.65;99154.16;2026154;80;20210;-76
2021/06/27 06:59:13;;;;;;;2.20;2.00;;;;;;;26.07;49.80;99147.25;2027339;79;20238;-77
2021/06/27 07:02:22;;;;;;;2.88;2.03;;;;;;;26.06;50.04;99143.72;2029444;77;20251;-76
2021/06/27 07:05:31;;;;;;;4.04;2.54;;;;;;;26.29;49.39;99151.84;2032113;79;20197;-76
2021/06/27 07:08:40;;;;;;;2.44;2.24;;;;;;;26.30;48.76;99151.75;2033012;79;20424;-77
2021/06/27 07:11:43;;;;;;;2.17;1.98;;;;;;;26.51;48.31;99152.00;2032735;79;20207;-76
2021/06/27 07:14:52;;;;;;;2.31;2.21;;;;;;;26.78;47.97;99151.78;2032730;79;20758;-77
2021/06/27 07:17:55;;;;;;;2.04;1.81;;;;;;;26.79;47.40;99149.00;2026427;77;31418;-77
2021/06/27 07:21:04;;;;;;;2.59;1.86;;;;;;;26.61;48.54;99149.53;2027675;79;20263;-77
2021/06/27 07:24:07;;;;;;;1.90;1.69;;;;;;;26.30;48.88;99143.75;2028857;79;20182;-82
2021/06/27 07:27:19;;;;;;;2.49;2.38;;;;;;;26.32;49.78;99144.47;2030054;79;20178;-76
2021/06/27 07:30:22;;;;;;;5.53;2.26;;;;;;;26.14;50.18;99133.38;2027144;77;20207;-76
2021/06/27 07:33:32;;;;;;;3.60;2.24;;;;;;;25.86;50.84;99123.88;2032433;79;20719;-77
2021/06/27 07:36:47;;;;;;;2.54;2.34;;;;;;;25.57;51.12;99111.75;2032522;79;20182;-76
2021/06/27 07:39:57;;;;;;;2.85;2.64;;;;;;;25.56;51.25;99102.91;2033171;79;20169;-78
2021/06/27 07:42:59;;;;;;;2.25;2.06;;;;;;;25.74;51.02;99095.47;2033349;79;20194;-76
2021/06/27 07:46:08;;;;;;;3.96;2.29;;;;;;;25.89;51.60;99097.03;2029456;77;20925;-76
2021/06/27 07:49:11;;;;;;;6.31;2.69;;;;;;;25.64;51.36;99094.38;2028222;79;20621;-77
2021/06/27 07:52:20;;;;;;;2.86;2.66;;;;;;;25.29;52.30;99103.03;2027328;79;20250;-77
2021/06/27 07:55:23;;;;;;;3.31;3.10;;;;;;;25.00;52.94;99120.13;2027708;79;20291;-76
2021/06/27 07:58:33;;;;;;;3.95;2.41;;;;;;;24.85;54.05;99121.13;2029024;79;20190;-77
2021/06/27 08:01:35;;;;;;;2.81;2.58;;;;;;;24.81;54.21;99125.81;2030991;77;41809;-77
2021/06/27 08:04:44;;;;;;;2.79;2.59;;;;;;;24.86;54.65;99128.16;2034291;79;20213;-76
2021/06/27 08:07:47;;;;;;;2.45;2.25;;;;;;;24.89;54.15;99106.69;2030826;79;20212;-77
2021/06/27 08:11:01;;;;;;;2.31;2.11;;;;;;;24.93;54.29;99094.88;2034532;79;20189;-77
2021/06/27 08:14:04;;;;;;;4.75;2.28;;;;;;;25.14;54.06;99096.13;2033117;79;20223;-80
2021/06/27 08:17:09;;;;;;;2.34;2.21;;;;;;;25.42;52.90;99096.88;2029416;77;20211;-77
2021/06/27 08:20:13;;;;;;;3.81;2.44;;;;;;;25.65;52.10;99088.09;2030515;79;20288;-77
2021/06/27 08:23:16;;;;;;;2.80;2.26;;;;;;;26.05;51.64;99093.28;2028930;79;20170;-76
2021/06/27 08:26:20;;;;;;;2.50;2.30;;;;;;;26.48;51.00;99101.63;2027423;79;20247;-79
2021/06/27 08:29:24;;;;;;;2.03;1.92;;;;;;;26.98;50.24;99096.97;2029670;79;20166;-78
2021/06/27 08:32:29;;;;;;;2.86;2.01;;;;;;;27.20;49.14;99102.38;2031902;77;21046;-78
2021/06/27 08:35:38;;;;;;;2.26;1.81;;;;;;;27.25;48.41;99099.34;2032781;79;20177;-78
2021/06/27 08:38:41;;;;;;;3.05;1.98;;;;;;;27.39;48.20;99085.78;2033112;79;20876;-74
2021/06/27 08:41:45;;;;;;;3.65;2.26;;;;;;;27.81;47.58;99081.56;2031778;79;20178;-77
2021/06/27 08:44:51;;;;;;;2.06;1.95;;;;;;;28.06;46.44;99076.91;2032597;79;20655;-80
2021/06/27 08:47:57;;;;;;;2.13;1.92;;;;;;;28.19;45.93;99080.28;2026342;77;21138;-77
2021/06/27 08:51:01;;;;;;;1.80;1.70;;;;;;;28.21;45.81;99081.00;2027498;79;20640;-84
2021/06/27 08:54:04;;;;;;;1.92;1.70;;;;;;;28.15;46.12;99081.50;2029603;79;20270;-76
2021/06/27 08:57:07;;;;;;;2.13;2.03;;;;;;;27.89;45.72;99086.28;2027972;79;21084;-76
2021/06/27 09:00:11;;;;;;;1.75;1.65;;;;;;;27.67;47.69;99076.50;2027159;79;20266;-78
2021/06/27 09:03:14;;;;;;;1.92;1.83;;;;;;;27.58;48.52;99079.84;2031834;77;20246;-76
2021/06/27 09:06:26;;;;;;;2.21;2.00;;;;;;;27.50;48.64;99079.63;2033143;79;20242;-76
2021/06/27 09:09:36;;;;;;;2.26;1.84;;;;;;;27.28;48.39;99075.97;2033575;79;20974;-78
2021/06/27 09:12:54;;;;;;;4.88;2.00;;;;;;;27.47;49.71;99085.19;2032890;79;20199;-80
2021/06/27 09:15:58;;;;;;;2.64;2.15;;;;;;;27.56;48.05;99082.66;2029392;77;70959;-77
2021/06/27 09:19:02;;;;;;;6.09;1.61;;;;;;;27.71;48.54;99085.09;2027046;79;20171;-72
2021/06/27 09:22:12;;;;;;;2.17;1.98;;;;;;;27.87;48.13;99080.25;2022411;79;20603;-72
2021/06/27 09:25:26;;;;;;;2.15;1.96;;;;;;;27.91;48.32;99076.34;2027748;79;20196;-70
2021/06/27 09:28:49;;;;;;;2.78;1.80;;;;;;;27.89;48.61;99079.13;2027089;79;20173;-71
2021/06/27 09:31:52;;;;;;;1.71;1.61;;;;;;;28.10;48.30;99076.53;2030134;77;23815;-71
2021/06/27 09:34:54;;;;;;;3.88;1.98;;;;;;;28.23;47.32;99082.59;2032807;79;20166;-71
2021/06/27 09:37:57;;;;;;;3.08;1.74;;;;;;;28.36;47.09;99081.59;2031826;79;20324;-71
2021/06/27 09:41:27;;;;;;;1.90;1.70;;;;;;;28.50;46.60;99068.78;2032282;79;20232;-71
2021/06/27 09:44:30;;;;;;;2.03;1.76;;;;;;;28.41;46.11;99060.69;2032345;79;20195;-71
2021/06/27 09:47:35;;;;;;;2.40;1.90;;;;;;;28.12;47.17;99068.41;2026982;77;28098;-71
2021/06/27 09:50:37;;;;;;;7.82;1.99;;;;;;;27.77;47.83;99080.13;2027229;79;20214;-72
2021/06/27 09:53:41;;;;;;;1.40;1.40;;;;;;;27.52;48.64;99073.19;2026591;79;20175;-71
2021/06/27 09:56:44;;;;;;;4.64;1.81;;;;;;;27.39;49.54;99065.31;2026946;79;20877;-70
2021/06/27 09:59:47;;;;;;;1.85;1.61;;;;;;;27.31;49.57;99061.56;2027897;79;20265;-70
2021/06/27 10:03:04;;;;;;;1.86;1.76;;;;;;;27.24;49.69;99073.66;2029980;77;21843;-72
2021/06/27 10:06:08;;;;;;;2.03;1.84;;;;;;;27.26;50.20;99072.56;2031878;79;20202;-71
2021/06/27 10:09:17;;;;;;;1.90;1.80;;;;;;;27.27;50.27;99073.41;2032516;79;20271;-72
2021/06/27 10:12:21;;;;;;;59.59;4.34;;;;;;;27.32;49.25;99069.44;2032970;79;20177;-70
2021/06/27 10:15:23;;;;;;;2.41;2.16;;;;;;;27.31;50.25;99067.75;2030500;77;20980;-71
2021/06/27 10:18:26;;;;;;;1.66;1.56;;;;;;;27.27;49.41;99063.59;2027537;80;20199;-69
2021/06/27 10:21:30;;;;;;;2.60;1.88;;;;;;;27.15;48.41;99074.38;2026840;79;20627;-71
2021/06/27 10:24:33;;;;;;;4.35;2.16;;;;;;;27.03;49.89;99063.69;2026842;79;20224;-69
2021/06/27 10:27:39;;;;;;;5.63;2.15;;;;;;;26.93;51.16;99061.81;2027490;80;20628;-70
2021/06/27 10:30:42;;;;;;;3.36;1.81;;;;;;;26.81;53.12;99060.97;2027723;77;22356;-71
2021/06/27 10:33:46;;;;;;;9.93;1.90;;;;;;;26.79;52.51;99066.41;2033284;79;20632;-71
2021/06/27 10:36:55;;;;;;;2.83;1.48;;;;;;;26.76;51.10;99056.00;2033777;79;20273;-71
2021/06/27 10:40:04;;;;;;;1.29;1.19;;;;;;;26.73;51.74;99056.19;2029912;79;20173;-72
2021/06/27 10:43:07;;;;;;;2.08;1.55;;;;;;;26.71;50.86;99052.81;2031965;79;20174;-72
2021/06/27 10:46:10;;;;;;;1.73;1.63;;;;;;;26.76;51.23;99058.66;2030091;77;21379;-71
2021/06/27 10:49:31;;;;;;;2.04;1.40;;;;;;;26.73;51.14;99050.88;2027995;79;20170;-69
2021/06/27 10:52:55;;;;;;;102.89;78.54;;;;;;;26.67;51.35;99054.00;2028424;79;20264;-75
2021/06/27 10:56:02;;;;;;;10.24;9.15;;;;;;;26.84;50.93;99060.72;2027868;79;21266;-75
2021/06/27 10:59:04;;;;;;;7.31;4.75;;;;;;;26.87;51.40;99048.97;2028485;79;20186;-76
2021/06/27 11:02:36;;;;;;;2.89;2.69;;;;;;;26.81;52.10;99044.97;2031493;77;23725;-78
2021/06/27 11:05:42;;;;;;;4.03;3.83;;;;;;;26.67;51.56;99045.16;2030912;79;20233;-71
2021/06/27 11:08:50;;;;;;;3.41;3.20;;;;;;;26.60;51.38;99044.81;2034006;79;20230;-73
2021/06/27 11:11:54;;;;;;;4.49;4.29;;;;;;;26.50;51.80;99049.97;2032552;79;20302;-74
2021/06/27 11:15:12;;;;;;;2.28;2.10;;;;;;;26.46;53.10;99045.84;2033169;79;20185;-73
2021/06/27 11:18:33;;;;;;;1.63;1.52;;;;;;;26.50;52.14;99035.78;2022617;77;21265;-75
2021/06/27 11:21:37;;;;;;;3.17;2.39;;;;;;;26.49;52.23;99042.09;2022862;80;20182;-76
2021/06/27 11:24:40;;;;;;;4.59;4.14;;;;;;;26.52;51.97;99030.34;2022268;80;20232;-74
2021/06/27 11:27:44;;;;;;;98.14;89.79;;;;;;;26.54;51.67;99037.25;2022676;80;20820;-70
2021/06/27 11:30:52;;;;;;;9.39;8.89;;;;;;;26.57;51.71;99046.81;2023910;77;33164;-74
2021/06/27 11:34:19;;;;;;;3.51;3.31;;;;;;;26.52;54.05;99041.84;2033789;79;20305;-75
2021/06/27 11:37:22;;;;;;;9.46;8.74;;;;;;;26.56;53.17;99047.78;2032066;79;20177;-76
2021/06/27 11:40:49;;;;;;;9.36;8.61;;;;;;;26.65;51.14;99042.63;2032789;79;20165;-74
2021/06/27 11:43:53;;;;;;;6.38;5.88;;;;;;;26.76;51.08;99045.34;2032786;79;20154;-71
2021/06/27 11:46:56;;;;;;;3.39;2.65;;;;;;;26.85;51.22;99046.44;2028427;77;28920;-75
2021/06/27 11:50:22;;;;;;;3.42;2.64;;;;;;;27.06;51.70;99038.63;2027465;79;20234;-72
2021/06/27 11:53:25;;;;;;;1.61;1.51;;;;;;;27.23;49.43;99047.97;2027563;79;20239;-73
2021/06/27 11:56:27;;;;;;;2.74;1.60;;;;;;;27.26;49.03;99043.22;2027586;79;20171;-74
2021/06/27 11:59:34;;;;;;;35.13;29.66;;;;;;;27.23;49.25;99046.16;2027237;79;20186;-73
2021/06/27 12:02:37;;;;;;;5.69;3.47;;;;;;;27.15;53.71;99064.56;2026500;77;22619;-74
2021/06/27 12:05:50;;;;;;;5.89;5.01;;;;;;;26.91;52.92;99064.59;2026834;79;20214;-77
2021/06/27 12:08:55;;;;;;;4.60;2.28;;;;;;;26.78;53.38;99062.03;2030831;79;20455;-72
2021/06/27 12:11:58;;;;;;;2.19;2.05;;;;;;;26.42;54.95;99064.81;2027874;79;20230;-76
2021/06/27 12:15:01;;;;;;;4.00;2.33;;;;;;;26.40;56.01;99072.94;2027890;79;20206;-77
2021/06/27 12:18:12;;;;;;;2.19;1.98;;;;;;;26.35;58.38;99077.72;2023416;77;20221;-75
2021/06/27 12:21:15;;;;;;;2.50;2.10;;;;;;;26.27;59.23;99074.75;2023156;80;20187;-76
2021/06/27 12:24:17;;;;;;;2.38;1.56;;;;;;;26.24;58.83;99068.81;2024841;80;20232;-77
2021/06/27 12:27:20;;;;;;;2.01;1.90;;;;;;;26.27;58.52;99069.44;2022471;80;20187;-77
2021/06/27 12:30:39;;;;;;;1.94;1.84;;;;;;;26.31;56.77;99070.91;2024045;79;20241;-76
2021/06/27 12:33:44;;;;;;;2.19;2.03;;;;;;;26.29;57.33;99079.97;2035271;79;20207;-76
2021/06/27 12:36:49;;;;;;;2.59;1.90;;;;;;;26.18;57.95;99078.09;2033392;79;20183;-76
2021/06/27 12:39:52;;;;;;;2.33;1.85;;;;;;;26.07;58.29;99084.22;2034144;79;20226;-77
2021/06/27 12:42:55;;;;;;;2.28;2.10;;;;;;;25.97;59.95;99074.34;2033658;79;21238;-76
2021/06/27 12:46:21;;;;;;;8.55;2.10;;;;;;;25.87;60.56;99071.50;2030955;77;33835;-76
2021/06/27 12:49:30;;;;;;;1.66;1.56;;;;;;;25.83;61.09;99065.53;2028810;79;20178;-75
2021/06/27 12:52:32;;;;;;;1.92;1.83;;;;;;;25.77;61.51;99067.81;2028557;79;20728;-79
2021/06/27 12:55:35;;;;;;;1.84;1.74;;;;;;;25.70;63.48;99069.22;2029677;79;20238;-76
2021/06/27 12:58:55;;;;;;;2.51;2.31;;;;;;;25.62;63.86;99064.41;2028102;79;20950;-76
2021/06/27 13:02:05;;;;;;;2.06;1.92;;;;;;;25.59;64.38;99065.47;2031043;77;23078;-76
2021/06/27 13:05:13;;;;;;;2.06;1.96;;;;;;;25.58;64.74;99066.44;2030548;79;20223;-76
2021/06/27 13:08:17;;;;;;;3.83;1.77;;;;;;;25.45;66.51;99076.22;2032133;79;20199;-76
2021/06/27 13:11:21;;;;;;;1.95;1.85;;;;;;;25.28;66.74;99079.22;2032992;79;20205;-75
2021/06/27 13:14:29;;;;;;;2.56;2.00;;;;;;;25.17;67.36;99079.13;2023759;79;20182;-75
2021/06/27 13:17:41;;;;;;;2.25;2.15;;;;;;;25.11;68.33;99076.88;2024280;77;53472;-73
2021/06/27 13:20:50;;;;;;;2.46;2.34;;;;;;;25.04;67.21;99079.13;2024800;79;20194;-73
2021/06/27 13:24:04;;;;;;;2.58;2.39;;;;;;;24.94;66.88;99076.19;2024299;79;20770;-73
2021/06/27 13:27:11;;;;;;;2.85;2.35;;;;;;;24.85;67.00;99081.28;2025095;79;20210;-73
2021/06/27 13:30:15;;;;;;;4.13;2.39;;;;;;;24.77;67.18;99089.75;2024327;79;20209;-74
2021/06/27 13:33:20;;;;;;;2.46;2.04;;;;;;;24.76;67.89;99081.91;2031378;77;22401;-75
2021/06/27 13:36:37;;;;;;;4.41;2.15;;;;;;;24.83;68.18;99083.22;2032641;79;20220;-75
2021/06/27 13:39:40;;;;;;;2.11;1.90;;;;;;;24.84;66.19;99090.22;2031505;79;20234;-75
2021/06/27 13:42:42;;;;;;;3.66;2.35;;;;;;;24.85;67.26;99094.56;2031919;79;20276;-75
2021/06/27 13:45:50;;;;;;;13.40;11.89;;;;;;;24.88;68.06;99110.31;2031487;77;22317;-77
2021/06/27 13:48:53;;;;;;;13.44;2.87;;;;;;;24.86;68.73;99109.56;2027319;79;21075;-73
2021/06/27 13:51:55;;;;;;;3.58;2.59;;;;;;;24.80;68.59;99118.81;2027072;79;20174;-75
2021/06/27 13:54:58;;;;;;;2.89;2.33;;;;;;;24.77;68.53;99118.97;2026861;79;20307;-75
2021/06/27 13:58:02;;;;;;;4.63;2.49;;;;;;;24.81;68.24;99122.31;2026890;79;20308;-75
2021/06/27 14:01:05;;;;;;;2.86;2.64;;;;;;;24.89;67.97;99125.28;2027285;77;24920;-75
2021/06/27 14:04:08;;;;;;;4.46;2.39;;;;;;;24.94;69.07;99120.50;2032177;79;20696;-75
2021/06/27 14:07:11;;;;;;;6.74;3.09;;;;;;;25.01;69.48;99119.19;2031777;79;20384;-75
2021/06/27 14:10:16;;;;;;;2.76;2.55;;;;;;;25.12;70.78;99118.44;2032006;79;20515;-75
2021/06/27 14:13:19;;;;;;;3.04;2.81;;;;;;;25.17;71.67;99111.88;2032005;79;20287;-75
2021/06/27 14:16:22;;;;;;;2.92;2.79;;;;;;;25.20;71.62;99109.00;2027869;77;83008;-75
2021/06/27 14:19:25;;;;;;;4.59;2.47;;;;;;;25.28;70.54;99095.16;2027585;80;20254;-74
2021/06/27 14:22:28;;;;;;;3.65;2.88;;;;;;;25.34;70.30;99077.97;2026616;80;20575;-75
2021/06/27 14:25:31;;;;;;;2.61;2.42;;;;;;;25.37;69.57;99080.41;2027598;79;20854;-76
2021/06/27 14:28:34;;;;;;;3.00;2.80;;;;;;;25.34;68.54;99062.00;2027295;80;20694;-75
2021/06/27 14:31:42;;;;;;;3.10;2.90;;;;;;;25.37;68.30;99059.97;2025433;77;23430;-75
2021/06/27 14:34:44;;;;;;;2.94;2.79;;;;;;;25.35;67.76;99061.03;2026673;79;20284;-76
2021/06/27 14:37:47;;;;;;;4.22;2.83;;;;;;;25.27;68.12;99065.06;2027806;80;20196;-76